Terminal Aerodrome Forecast
Issued by NWS

Current Version | Previous Version | Text Only | Print | Product List | Glossary On
Versions: 1 2 3 4 5 6 7 8 9 10 11 12 13
000
FTUS45 KABQ 230540
TAFTCC
TAF
KTCC 230540Z 2306/2406 16018G25KT P6SM SKC
     FM231300 19012KT P6SM VCSH BKN050
     FM231900 17015G25KT P6SM VCTS BKN035CB
     FM232300 22018G26KT 4SM +TSRA BR OVC015CB
     FM240300 16012KT P6SM VCTS OVC025CB=

USA.gov is the U.S. government's official web portal to all federal, state and local government web resources and services.